Time;durP1;ratioP1;P1;durP2;ratioP2;P2;SDS_P1;SDS_P2;PMS_P1;PMS_P2;Temp;Humidity;BMP_temperature;BMP_pressure;BME280_temperature;BME280_humidity;BME280_pressure;Samples;Min_cycle;Max_cycle;Signal;HPM_P1;HPM_P2
2023/09/04 00:01:50;;;;;;;;;;;17.90;99.90;;;;;;4992874;28;20360;-68
2023/09/04 00:04:15;;;;;;;;;;;17.80;99.90;;;;;;4988371;28;20415;-68
2023/09/04 00:06:41;;;;;;;;;;;17.70;99.90;;;;;;4990645;28;19909;-68
2023/09/04 00:09:07;;;;;;;;;;;17.70;99.90;;;;;;4992649;28;19909;-68
2023/09/04 00:11:32;;;;;;;;;;;17.70;99.90;;;;;;4976683;28;19909;-68
2023/09/04 00:13:58;;;;;;;;;;;17.70;99.90;;;;;;4986654;28;19954;-68
2023/09/04 00:16:23;;;;;;;;;;;17.60;99.90;;;;;;4991040;28;19905;-68
2023/09/04 00:18:49;;;;;;;;;;;17.60;99.90;;;;;;4991766;28;19988;-68
2023/09/04 00:21:15;;;;;;;;;;;17.50;99.90;;;;;;4996045;28;19920;-68
2023/09/04 00:23:41;;;;;;;;;;;17.50;99.90;;;;;;4991718;28;19956;-68
2023/09/04 00:26:06;;;;;;;;;;;17.40;99.90;;;;;;4995941;28;19960;-68
2023/09/04 00:28:32;;;;;;;;;;;17.40;99.90;;;;;;4975453;28;19917;-68
2023/09/04 00:30:57;;;;;;;;;;;17.40;99.90;;;;;;4990286;28;19905;-68
2023/09/04 00:33:23;;;;;;;;;;;17.40;99.90;;;;;;4990515;28;20179;-68
2023/09/04 00:35:49;;;;;;;;;;;17.40;99.90;;;;;;4993769;28;20315;-68
2023/09/04 00:38:14;;;;;;;;;;;17.40;99.90;;;;;;4991404;28;19913;-68
2023/09/04 00:40:40;;;;;;;;;;;17.40;99.90;;;;;;4986704;28;19991;-67
2023/09/04 00:43:06;;;;;;;;;;;17.40;99.90;;;;;;4995074;28;20439;-68
2023/09/04 00:45:31;;;;;;;;;;;17.40;99.90;;;;;;4991167;28;19905;-68
2023/09/04 00:47:57;;;;;;;;;;;17.30;99.90;;;;;;4991842;28;19913;-68
2023/09/04 00:50:23;;;;;;;;;;;17.30;99.90;;;;;;4978472;28;19906;-67
2023/09/04 00:52:55;;;;;;;;;;;17.30;99.90;;;;;;4990872;28;20330;-68
2023/09/04 00:55:21;;;;;;;;;;;17.30;99.90;;;;;;4984496;28;19909;-68
2023/09/04 00:57:47;;;;;;;;;;;17.40;99.90;;;;;;4995447;28;20395;-68
2023/09/04 01:00:14;;;;;;;;;;;17.30;99.90;;;;;;4988131;28;19914;-68
2023/09/04 01:02:40;;;;;;;;;;;17.40;99.90;;;;;;4993110;28;19913;-68
2023/09/04 01:05:06;;;;;;;;;;;17.40;99.90;;;;;;4990124;28;19935;-68
2023/09/04 01:07:32;;;;;;;;;;;17.40;99.90;;;;;;4987072;28;19913;-68
2023/09/04 01:09:58;;;;;;;;;;;17.40;99.90;;;;;;4987798;28;19916;-68
2023/09/04 01:12:33;;;;;;;;;;;17.40;99.90;;;;;;4992075;28;19909;-68
2023/09/04 01:14:59;;;;;;;;;;;17.30;99.90;;;;;;4989227;28;20011;-68
2023/09/04 01:17:25;;;;;;;;;;;17.30;99.90;;;;;;4992783;28;20554;-68
2023/09/04 01:19:50;;;;;;;;;;;17.40;99.90;;;;;;4991922;28;19906;-67
2023/09/04 01:22:16;;;;;;;;;;;17.40;99.90;;;;;;4990039;28;20379;-68
2023/09/04 01:24:43;;;;;;;;;;;17.40;99.90;;;;;;4973901;28;19945;-68
2023/09/04 01:27:39;;;;;;;;;;;17.30;99.90;;;;;;4991555;28;19983;-68
2023/09/04 01:30:10;;;;;;;;;;;17.30;99.90;;;;;;4984670;28;19979;-68
2023/09/04 01:32:40;;;;;;;;;;;17.30;99.90;;;;;;4990712;28;20201;-68
2023/09/04 01:35:09;;;;;;;;;;;17.30;99.90;;;;;;4994720;28;19925;-68
2023/09/04 01:37:35;;;;;;;;;;;17.20;99.90;;;;;;4992714;28;19924;-68
2023/09/04 01:40:01;;;;;;;;;;;17.20;99.90;;;;;;4991206;28;20345;-68
2023/09/04 01:42:26;;;;;;;;;;;17.20;99.90;;;;;;4981075;28;19909;-68
2023/09/04 01:44:52;;;;;;;;;;;17.20;99.90;;;;;;4979747;28;20008;-68
2023/09/04 01:47:17;;;;;;;;;;;17.20;99.90;;;;;;4989994;28;20360;-68
2023/09/04 01:49:43;;;;;;;;;;;17.20;99.90;;;;;;5000271;28;21352;-68
2023/09/04 01:52:09;;;;;;;;;;;17.10;99.90;;;;;;4992554;28;20746;-68
2023/09/04 01:54:35;;;;;;;;;;;17.10;99.90;;;;;;4995378;28;19924;-68
2023/09/04 01:57:01;;;;;;;;;;;17.10;99.90;;;;;;4977478;28;19906;-68
2023/09/04 01:59:27;;;;;;;;;;;17.10;99.90;;;;;;4988030;28;19937;-68
2023/09/04 02:01:52;;;;;;;;;;;17.20;99.90;;;;;;4993675;28;20260;-68
2023/09/04 02:04:18;;;;;;;;;;;17.20;99.90;;;;;;4993664;28;19910;-68
2023/09/04 02:06:43;;;;;;;;;;;17.10;99.90;;;;;;4997935;28;19920;-67
2023/09/04 02:09:09;;;;;;;;;;;17.10;99.90;;;;;;4999133;28;19914;-68
2023/09/04 02:11:34;;;;;;;;;;;17.10;99.90;;;;;;4990871;28;20012;-68
2023/09/04 02:14:00;;;;;;;;;;;17.10;99.90;;;;;;4982691;28;19913;-68
2023/09/04 02:16:27;;;;;;;;;;;17.00;99.90;;;;;;4990488;28;20279;-68
2023/09/04 02:18:55;;;;;;;;;;;17.00;99.90;;;;;;4978304;28;19910;-68
2023/09/04 02:21:20;;;;;;;;;;;17.00;99.90;;;;;;4992191;28;19905;-68
2023/09/04 02:23:46;;;;;;;;;;;17.00;99.90;;;;;;4996031;28;19910;-68
2023/09/04 02:26:12;;;;;;;;;;;16.90;99.90;;;;;;4998250;28;19910;-68
2023/09/04 02:28:38;;;;;;;;;;;16.90;99.90;;;;;;4978599;28;19913;-68
2023/09/04 02:31:07;;;;;;;;;;;16.90;99.90;;;;;;4997460;28;19967;-68
2023/09/04 02:33:33;;;;;;;;;;;16.80;99.90;;;;;;4992754;28;19921;-68
2023/09/04 02:35:59;;;;;;;;;;;16.80;99.90;;;;;;4992251;28;20382;-68
2023/09/04 02:38:24;;;;;;;;;;;16.90;99.90;;;;;;4995207;28;19916;-68
2023/09/04 02:40:50;;;;;;;;;;;16.90;99.90;;;;;;4974963;28;19909;-68
2023/09/04 02:43:15;;;;;;;;;;;16.80;99.90;;;;;;4993287;28;19913;-66
2023/09/04 02:45:41;;;;;;;;;;;16.80;99.90;;;;;;4992972;28;19909;-67
2023/09/04 02:48:06;;;;;;;;;;;16.70;99.90;;;;;;4977057;28;20287;-68
2023/09/04 02:50:33;;;;;;;;;;;16.70;99.90;;;;;;4990558;28;19914;-68
2023/09/04 02:52:59;;;;;;;;;;;16.70;99.90;;;;;;4998009;28;19909;-68
2023/09/04 02:55:24;;;;;;;;;;;16.80;99.90;;;;;;4994944;28;19960;-67
2023/09/04 02:57:50;;;;;;;;;;;16.70;99.90;;;;;;4990021;28;19963;-68
2023/09/04 03:00:17;;;;;;;;;;;16.60;99.90;;;;;;4992830;28;19913;-68
2023/09/04 03:02:42;;;;;;;;;;;16.50;99.90;;;;;;4977134;28;19905;-68
2023/09/04 03:05:08;;;;;;;;;;;16.50;99.90;;;;;;4992654;28;19910;-69
2023/09/04 03:07:34;;;;;;;;;;;16.60;99.90;;;;;;4992336;28;19928;-67
2023/09/04 03:09:59;;;;;;;;;;;16.60;99.90;;;;;;4996877;28;20367;-67
2023/09/04 03:12:26;;;;;;;;;;;16.50;99.90;;;;;;4997479;28;19936;-67
2023/09/04 03:14:58;;;;;;;;;;;16.50;99.90;;;;;;4995259;28;19913;-68
2023/09/04 03:17:24;;;;;;;;;;;16.50;99.90;;;;;;4991828;28;19913;-68
2023/09/04 03:19:51;;;;;;;;;;;16.50;99.90;;;;;;4995921;28;19906;-68
2023/09/04 03:22:16;;;;;;;;;;;16.50;99.90;;;;;;4973668;28;19909;-68
2023/09/04 03:24:42;;;;;;;;;;;16.50;99.90;;;;;;4995954;28;20677;-68
2023/09/04 03:27:07;;;;;;;;;;;16.40;99.90;;;;;;4996221;28;20435;-68
2023/09/04 03:29:33;;;;;;;;;;;16.40;99.90;;;;;;4994537;28;19909;-68
2023/09/04 03:31:58;;;;;;;;;;;16.30;99.90;;;;;;4991250;28;19916;-68
2023/09/04 03:34:24;;;;;;;;;;;16.30;99.90;;;;;;4992848;28;19905;-68
2023/09/04 03:36:49;;;;;;;;;;;16.30;99.90;;;;;;4992580;28;19905;-68
2023/09/04 03:39:15;;;;;;;;;;;16.20;99.90;;;;;;4992122;28;19938;-67
2023/09/04 03:41:41;;;;;;;;;;;16.20;99.90;;;;;;4997422;28;19916;-68
2023/09/04 03:44:06;;;;;;;;;;;16.30;99.90;;;;;;4992710;28;19925;-68
2023/09/04 03:46:32;;;;;;;;;;;16.30;99.90;;;;;;4990411;28;20048;-68
2023/09/04 03:48:57;;;;;;;;;;;16.20;99.90;;;;;;4975927;28;19967;-68
2023/09/04 03:51:23;;;;;;;;;;;16.20;99.90;;;;;;4990218;28;19992;-68
2023/09/04 03:53:48;;;;;;;;;;;16.20;99.90;;;;;;4991508;28;19913;-68
2023/09/04 03:56:14;;;;;;;;;;;16.20;99.90;;;;;;4993897;28;19913;-68
2023/09/04 03:58:39;;;;;;;;;;;16.10;99.90;;;;;;4995110;28;19956;-68
2023/09/04 04:01:05;;;;;;;;;;;16.10;99.90;;;;;;4987908;28;20020;-68
2023/09/04 04:03:31;;;;;;;;;;;16.10;99.90;;;;;;4990788;28;19909;-68
2023/09/04 04:05:56;;;;;;;;;;;16.10;99.90;;;;;;4990138;28;20161;-68
2023/09/04 04:08:22;;;;;;;;;;;16.00;99.90;;;;;;4992708;28;19909;-67
2023/09/04 04:10:47;;;;;;;;;;;16.00;99.90;;;;;;4993088;28;19909;-78
2023/09/04 04:13:13;;;;;;;;;;;15.90;99.90;;;;;;4983807;28;19979;-78
2023/09/04 04:15:40;;;;;;;;;;;15.90;99.90;;;;;;5000588;28;19913;-76
2023/09/04 04:18:08;;;;;;;;;;;15.90;99.90;;;;;;4994711;28;19909;-75
2023/09/04 04:20:33;;;;;;;;;;;15.80;99.90;;;;;;4992798;28;19913;-77
2023/09/04 04:22:59;;;;;;;;;;;15.80;99.90;;;;;;4995385;28;19909;-77
2023/09/04 04:25:25;;;;;;;;;;;15.90;99.90;;;;;;4995414;28;19916;-77
2023/09/04 04:27:50;;;;;;;;;;;15.80;99.90;;;;;;4992343;28;19909;-76
2023/09/04 04:30:16;;;;;;;;;;;15.80;99.90;;;;;;4978999;28;19913;-75
2023/09/04 04:32:42;;;;;;;;;;;15.70;99.90;;;;;;4994964;28;20256;-75
2023/09/04 04:35:08;;;;;;;;;;;15.60;99.90;;;;;;4978233;28;19921;-78
2023/09/04 04:37:33;;;;;;;;;;;15.60;99.90;;;;;;4990862;28;19906;-77
2023/09/04 04:40:03;;;;;;;;;;;15.60;99.90;;;;;;4983048;28;19906;-77
2023/09/04 04:42:29;;;;;;;;;;;15.60;99.90;;;;;;4981259;28;19913;-76
2023/09/04 04:44:55;;;;;;;;;;;15.70;99.90;;;;;;4991499;28;19964;-77
2023/09/04 04:47:20;;;;;;;;;;;15.60;99.90;;;;;;4994594;28;20001;-76
2023/09/04 04:49:46;;;;;;;;;;;15.70;99.90;;;;;;4976856;28;20020;-74
2023/09/04 04:52:11;;;;;;;;;;;15.70;99.90;;;;;;4988845;28;20353;-73
2023/09/04 04:54:37;;;;;;;;;;;15.90;99.90;;;;;;4992993;28;19917;-74
2023/09/04 04:57:03;;;;;;;;;;;16.00;99.90;;;;;;4977425;28;20017;-73
2023/09/04 04:59:29;;;;;;;;;;;16.10;99.90;;;;;;4995990;28;19976;-74
2023/09/04 05:01:56;;;;;;;;;;;16.30;99.90;;;;;;4988277;28;19937;-73
2023/09/04 05:04:21;;;;;;;;;;;16.40;99.90;;;;;;4976818;28;19906;-73
2023/09/04 05:06:47;;;;;;;;;;;16.50;99.90;;;;;;4991710;28;19905;-75
2023/09/04 05:09:13;;;;;;;;;;;16.60;99.90;;;;;;4993287;28;19948;-76
2023/09/04 05:11:38;;;;;;;;;;;16.70;99.90;;;;;;4995076;28;20024;-77
2023/09/04 05:14:05;;;;;;;;;;;16.70;99.90;;;;;;4995771;28;20378;-79
2023/09/04 05:16:31;;;;;;;;;;;16.70;99.90;;;;;;4979115;28;19913;-77
2023/09/04 05:18:57;;;;;;;;;;;16.80;99.90;;;;;;4999552;28;20386;-76
2023/09/04 05:21:23;;;;;;;;;;;16.80;99.90;;;;;;5002346;28;19905;-76
2023/09/04 05:23:49;;;;;;;;;;;16.90;99.90;;;;;;4993909;28;19912;-77
2023/09/04 05:26:14;;;;;;;;;;;17.00;99.90;;;;;;4999983;28;19963;-78
2023/09/04 05:28:40;;;;;;;;;;;17.20;99.90;;;;;;4999132;28;19909;-78
2023/09/04 05:31:05;;;;;;;;;;;17.20;99.90;;;;;;5003472;28;19952;-78
2023/09/04 05:33:31;;;;;;;;;;;17.20;99.90;;;;;;4998252;28;19941;-79
2023/09/04 05:35:57;;;;;;;;;;;17.20;99.90;;;;;;5002750;28;20303;-76
2023/09/04 05:38:24;;;;;;;;;;;17.20;99.90;;;;;;5001660;28;19905;-74
2023/09/04 05:40:52;;;;;;;;;;;17.40;99.90;;;;;;4999897;28;19910;-75
2023/09/04 05:43:17;;;;;;;;;;;17.60;99.90;;;;;;5101715;23;19943;-73
2023/09/04 05:45:43;;;;;;;;;;;17.60;99.90;;;;;;5042732;28;19916;-75
2023/09/04 05:48:08;;;;;;;;;;;17.80;99.90;;;;;;5043521;28;19913;-74
2023/09/04 05:50:34;;;;;;;;;;;17.80;99.90;;;;;;5041456;28;20311;-75
2023/09/04 05:52:59;;;;;;;;;;;17.90;99.90;;;;;;5033639;28;19912;-76
2023/09/04 05:55:25;;;;;;;;;;;17.60;99.90;;;;;;5027716;28;20007;-74
2023/09/04 05:57:51;;;;;;;;;;;17.60;99.90;;;;;;5023850;28;19933;-76
2023/09/04 06:00:16;;;;;;;;;;;17.80;99.90;;;;;;5023860;28;19905;-76
2023/09/04 06:02:42;;;;;;;;;;;18.00;99.90;;;;;;5024450;28;19909;-75
2023/09/04 06:05:07;;;;;;;;;;;18.00;99.90;;;;;;5028234;28;20589;-75
2023/09/04 06:07:33;;;;;;;;;;;18.20;99.90;;;;;;5037455;28;19905;-75
2023/09/04 06:09:59;;;;;;;;;;;18.30;99.90;;;;;;5030624;28;19948;-77
2023/09/04 06:12:24;;;;;;;;;;;18.40;99.90;;;;;;5023264;28;19952;-74
2023/09/04 06:14:50;;;;;;;;;;;18.30;99.90;;;;;;5045169;28;19916;-72
2023/09/04 06:17:15;;;;;;;;;;;18.20;99.90;;;;;;5039417;28;19912;-74
2023/09/04 06:19:41;;;;;;;;;;;18.30;99.90;;;;;;5043641;28;19905;-76
2023/09/04 06:22:07;;;;;;;;;;;18.60;99.90;;;;;;5031487;28;19927;-63
2023/09/04 06:24:32;;;;;;;;;;;18.80;99.90;;;;;;5028251;28;19912;-77
2023/09/04 06:26:59;;;;;;;;;;;19.10;99.90;;;;;;5030805;28;19916;-78
2023/09/04 06:29:25;;;;;;;;;;;19.70;99.90;;;;;;5027930;28;20275;-75
2023/09/04 06:31:50;;;;;;;;;;;20.30;99.90;;;;;;5021865;28;19905;-68
2023/09/04 06:34:16;;;;;;;;;;;20.90;99.90;;;;;;5021940;28;20291;-67
2023/09/04 06:36:41;;;;;;;;;;;21.30;99.90;;;;;;5020440;28;20362;-67
2023/09/04 06:39:07;;;;;;;;;;;22.10;99.90;;;;;;5023757;28;19978;-69
2023/09/04 06:41:32;;;;;;;;;;;22.60;99.90;;;;;;5018772;28;19947;-68
2023/09/04 06:43:58;;;;;;;;;;;23.00;99.90;;;;;;5018203;28;19996;-67
2023/09/04 06:46:24;;;;;;;;;;;23.10;99.90;;;;;;5022145;28;20276;-67
2023/09/04 06:48:49;;;;;;;;;;;23.00;99.90;;;;;;5019746;28;19909;-69
2023/09/04 06:51:16;;;;;;;;;;;22.50;99.90;;;;;;5018016;28;20012;-68
2023/09/04 06:53:42;;;;;;;;;;;22.30;99.90;;;;;;5017763;28;19908;-67
2023/09/04 06:56:07;;;;;;;;;;;22.10;99.90;;;;;;5020189;28;19913;-67
2023/09/04 06:58:33;;;;;;;;;;;21.90;99.90;;;;;;5021375;28;20317;-68
2023/09/04 07:01:02;;;;;;;;;;;21.90;99.90;;;;;;5019241;28;19909;-69
2023/09/04 07:03:29;;;;;;;;;;;21.90;99.90;;;;;;4999506;28;19909;-67
2023/09/04 07:05:54;;;;;;;;;;;21.90;99.90;;;;;;5018453;28;19909;-68
2023/09/04 07:08:20;;;;;;;;;;;22.10;99.90;;;;;;4997563;28;20332;-69
2023/09/04 07:10:47;;;;;;;;;;;22.70;99.90;;;;;;5021962;28;19905;-69
2023/09/04 07:13:12;;;;;;;;;;;23.00;99.90;;;;;;5020023;28;19952;-67
2023/09/04 07:15:38;;;;;;;;;;;23.40;99.00;;;;;;5018210;28;20414;-69
2023/09/04 07:18:03;;;;;;;;;;;23.80;98.30;;;;;;5019827;28;20670;-69
2023/09/04 07:20:29;;;;;;;;;;;24.10;97.40;;;;;;5020373;28;19913;-67
2023/09/04 07:22:55;;;;;;;;;;;23.90;97.50;;;;;;5024705;28;19905;-67
2023/09/04 07:25:21;;;;;;;;;;;24.30;97.00;;;;;;5019663;28;19963;-70
2023/09/04 07:27:47;;;;;;;;;;;25.50;95.80;;;;;;5018290;28;19905;-68
2023/09/04 07:30:13;;;;;;;;;;;27.60;92.50;;;;;;5024951;28;20593;-67
2023/09/04 07:32:38;;;;;;;;;;;28.90;90.30;;;;;;5018222;28;19924;-67
2023/09/04 07:35:04;;;;;;;;;;;30.40;85.10;;;;;;5018714;28;19971;-68
2023/09/04 07:37:30;;;;;;;;;;;31.60;81.00;;;;;;5016885;28;20414;-67
2023/09/04 07:39:56;;;;;;;;;;;32.10;76.70;;;;;;5019985;28;19909;-67
2023/09/04 07:42:21;;;;;;;;;;;32.10;74.40;;;;;;5023254;28;20359;-69
2023/09/04 07:44:47;;;;;;;;;;;32.60;72.70;;;;;;5016445;28;19917;-69
2023/09/04 07:47:13;;;;;;;;;;;34.20;69.80;;;;;;5019179;28;19913;-68
2023/09/04 07:49:38;;;;;;;;;;;34.60;67.40;;;;;;5023662;28;20309;-68
2023/09/04 07:52:04;;;;;;;;;;;35.10;64.70;;;;;;5017156;28;19912;-67
2023/09/04 07:54:29;;;;;;;;;;;33.00;66.30;;;;;;5000854;28;19924;-68
2023/09/04 07:56:55;;;;;;;;;;;32.00;68.60;;;;;;5019867;28;19963;-68
2023/09/04 07:59:20;;;;;;;;;;;32.80;66.70;;;;;;5019452;28;20336;-69
2023/09/04 08:01:46;;;;;;;;;;;33.00;66.30;;;;;;5019052;28;19909;-69
2023/09/04 08:04:13;;;;;;;;;;;35.40;65.50;;;;;;5018873;28;19940;-69
2023/09/04 08:06:38;;;;;;;;;;;36.90;60.90;;;;;;5021606;28;19909;-68
2023/09/04 08:09:04;;;;;;;;;;;37.00;58.40;;;;;;4999413;28;19913;-68
2023/09/04 08:11:30;;;;;;;;;;;35.30;58.90;;;;;;5020275;28;19912;-69
2023/09/04 08:13:55;;;;;;;;;;;33.60;61.40;;;;;;5016595;28;20355;-68
2023/09/04 08:16:21;;;;;;;;;;;31.20;62.70;;;;;;5019470;28;20379;-67
2023/09/04 08:18:46;;;;;;;;;;;30.30;64.70;;;;;;5020959;28;20389;-68
2023/09/04 08:21:12;;;;;;;;;;;32.40;65.20;;;;;;5019590;28;19908;-67
2023/09/04 08:23:38;;;;;;;;;;;33.90;62.20;;;;;;5017548;28;20275;-68
2023/09/04 08:26:03;;;;;;;;;;;33.10;61.90;;;;;;5024576;28;20590;-67
2023/09/04 08:28:29;;;;;;;;;;;32.70;62.80;;;;;;4999959;28;19909;-67
2023/09/04 08:30:55;;;;;;;;;;;33.80;63.00;;;;;;5017911;28;19905;-69
2023/09/04 08:33:20;;;;;;;;;;;33.80;61.50;;;;;;5015251;28;20347;-68
2023/09/04 08:35:46;;;;;;;;;;;35.10;61.30;;;;;;5017642;28;19913;-68
2023/09/04 08:38:11;;;;;;;;;;;36.20;59.00;;;;;;5000235;28;20312;-69
2023/09/04 08:40:39;;;;;;;;;;;35.70;58.90;;;;;;5022289;28;19916;-70
2023/09/04 08:43:04;;;;;;;;;;;36.00;58.50;;;;;;5016687;28;20084;-70
2023/09/04 08:45:30;;;;;;;;;;;36.70;58.60;;;;;;5021313;28;19997;-69
2023/09/04 08:47:57;;;;;;;;;;;35.10;57.90;;;;;;5018089;28;19928;-69
2023/09/04 08:50:23;;;;;;;;;;;35.60;58.80;;;;;;5021541;28;19920;-68
2023/09/04 08:52:50;;;;;;;;;;;37.10;56.90;;;;;;5020382;28;19909;-68
2023/09/04 08:55:16;;;;;;;;;;;37.30;56.50;;;;;;5021549;28;19961;-66
2023/09/04 08:57:42;;;;;;;;;;;37.10;55.80;;;;;;5009048;28;20324;-68
2023/09/04 09:00:08;;;;;;;;;;;37.90;55.40;;;;;;5019711;28;19916;-69
2023/09/04 09:02:34;;;;;;;;;;;37.90;54.40;;;;;;5024616;28;20519;-69
2023/09/04 09:05:00;;;;;;;;;;;37.70;53.80;;;;;;5003654;28;19916;-68
2023/09/04 09:07:29;;;;;;;;;;;36.00;54.90;;;;;;5021961;28;20348;-67
2023/09/04 09:09:59;;;;;;;;;;;33.80;56.50;;;;;;5020761;28;19905;-69
2023/09/04 09:12:24;;;;;;;;;;;32.50;57.60;;;;;;5018690;28;20375;-69
2023/09/04 09:14:50;;;;;;;;;;;31.60;59.60;;;;;;5018618;28;19958;-69
2023/09/04 09:17:16;;;;;;;;;;;29.70;60.90;;;;;;5020678;28;19916;-68
2023/09/04 09:19:42;;;;;;;;;;;30.00;62.10;;;;;;5023830;28;19905;-66
2023/09/04 09:22:15;;;;;;;;;;;30.90;62.10;;;;;;5020037;28;19905;-66
2023/09/04 09:24:52;;;;;;;;;;;32.00;59.90;;;;;;5020559;28;20015;-68
2023/09/04 09:27:22;;;;;;;;;;;32.80;59.60;;;;;;5018251;28;19917;-69
2023/09/04 09:29:48;;;;;;;;;;;34.30;58.40;;;;;;5022126;28;19953;-68
2023/09/04 09:32:18;;;;;;;;;;;35.00;57.30;;;;;;5025187;28;19913;-67
2023/09/04 09:34:47;;;;;;;;;;;36.00;56.70;;;;;;5018984;28;20295;-68
2023/09/04 09:37:13;;;;;;;;;;;35.60;55.50;;;;;;5001658;28;19968;-68
2023/09/04 09:39:39;;;;;;;;;;;33.40;57.30;;;;;;5020132;28;20772;-68
2023/09/04 09:42:04;;;;;;;;;;;31.10;59.10;;;;;;5021751;28;20707;-67
2023/09/04 09:44:33;;;;;;;;;;;27.70;64.40;;;;;;5019576;28;20027;-67
2023/09/04 09:46:59;;;;;;;;;;;28.40;65.10;;;;;;5021118;28;20311;-67
2023/09/04 09:49:26;;;;;;;;;;;30.10;63.70;;;;;;5019174;28;19909;-67
2023/09/04 09:51:53;;;;;;;;;;;32.50;60.30;;;;;;5020771;28;19909;-67
2023/09/04 09:54:37;;;;;;;;;;;33.60;58.80;;;;;;5021516;28;19909;-69
2023/09/04 09:57:03;;;;;;;;;;;33.40;59.00;;;;;;5019124;28;20631;-70
2023/09/04 09:59:32;;;;;;;;;;;33.80;58.40;;;;;;5001332;28;20037;-66
2023/09/04 10:01:58;;;;;;;;;;;33.20;58.20;;;;;;5020383;28;19905;-65
2023/09/04 10:04:24;;;;;;;;;;;31.40;58.80;;;;;;5019974;28;19920;-70
2023/09/04 10:06:51;;;;;;;;;;;29.90;60.00;;;;;;5026114;28;19913;-65
2023/09/04 10:09:20;;;;;;;;;;;28.70;61.80;;;;;;5002057;28;19912;-65
2023/09/04 10:11:51;;;;;;;;;;;28.60;61.60;;;;;;5018887;28;19905;-65
2023/09/04 10:14:20;;;;;;;;;;;29.00;62.30;;;;;;5016977;28;19909;-65
2023/09/04 10:16:54;;;;;;;;;;;29.70;61.20;;;;;;5020030;28;19913;-66
2023/09/04 10:19:24;;;;;;;;;;;30.00;62.20;;;;;;5017403;28;19909;-65
2023/09/04 10:21:52;;;;;;;;;;;30.80;59.90;;;;;;5020393;28;19905;-65
2023/09/04 10:24:21;;;;;;;;;;;28.60;60.40;;;;;;5018796;28;20602;-65
2023/09/04 10:27:13;;;;;;;;;;;28.30;62.20;;;;;;5019352;28;19928;-65
2023/09/04 10:29:48;;;;;;;;;;;30.90;60.00;;;;;;5015478;28;20003;-65
2023/09/04 10:32:14;;;;;;;;;;;30.80;59.00;;;;;;5020173;28;20560;-64
2023/09/04 10:34:40;;;;;;;;;;;32.40;59.00;;;;;;5018694;28;20011;-64
2023/09/04 10:37:14;;;;;;;;;;;29.80;58.70;;;;;;5019190;28;19916;-65
2023/09/04 10:39:40;;;;;;;;;;;28.30;60.90;;;;;;5020517;28;20370;-64
2023/09/04 10:42:06;;;;;;;;;;;26.70;63.30;;;;;;5000835;28;19920;-64
2023/09/04 10:44:45;;;;;;;;;;;29.20;63.00;;;;;;5023037;28;19918;-65
2023/09/04 10:47:12;;;;;;;;;;;31.60;60.50;;;;;;5004576;28;19909;-65
2023/09/04 10:49:37;;;;;;;;;;;32.00;59.10;;;;;;5020109;28;20351;-64
2023/09/04 10:52:03;;;;;;;;;;;30.60;59.50;;;;;;5019658;28;19995;-63
2023/09/04 10:54:28;;;;;;;;;;;30.70;59.90;;;;;;5021962;28;20003;-65
2023/09/04 10:56:54;;;;;;;;;;;32.20;58.60;;;;;;5015408;28;19909;-65
2023/09/04 10:59:20;;;;;;;;;;;32.80;57.40;;;;;;5018382;28;19913;-66
2023/09/04 11:01:46;;;;;;;;;;;31.20;59.20;;;;;;5024282;28;19913;-65
2023/09/04 11:04:25;;;;;;;;;;;29.80;59.70;;;;;;5017027;28;19979;-64
2023/09/04 11:07:10;;;;;;;;;;;28.20;60.60;;;;;;4999048;28;19909;-65
2023/09/04 11:09:36;;;;;;;;;;;27.70;63.20;;;;;;5013530;28;20327;-66
2023/09/04 11:12:02;;;;;;;;;;;27.60;64.00;;;;;;5019129;28;20007;-65
2023/09/04 11:14:32;;;;;;;;;;;27.40;64.30;;;;;;5018689;28;19920;-66
2023/09/04 11:17:02;;;;;;;;;;;27.00;64.60;;;;;;5023796;28;19970;-66
2023/09/04 11:19:28;;;;;;;;;;;26.70;65.40;;;;;;4998582;28;20307;-66
2023/09/04 11:21:55;;;;;;;;;;;26.20;65.20;;;;;;5019393;28;20002;-65
2023/09/04 11:24:22;;;;;;;;;;;25.60;67.40;;;;;;5015305;28;20367;-65
2023/09/04 11:26:48;;;;;;;;;;;26.10;67.30;;;;;;4999822;28;19909;-65
2023/09/04 11:29:13;;;;;;;;;;;26.30;66.00;;;;;;5018374;28;20316;-67
2023/09/04 11:31:39;;;;;;;;;;;25.90;65.50;;;;;;5000213;28;19920;-66
2023/09/04 11:34:05;;;;;;;;;;;26.30;65.20;;;;;;5017108;28;20015;-66
2023/09/04 11:36:30;;;;;;;;;;;26.80;64.70;;;;;;5016459;28;19955;-65
2023/09/04 11:39:03;;;;;;;;;;;27.00;63.80;;;;;;5014994;28;20832;-65
2023/09/04 11:41:29;;;;;;;;;;;26.30;65.20;;;;;;5019407;28;19909;-66
2023/09/04 11:43:54;;;;;;;;;;;25.80;65.20;;;;;;5023388;28;19917;-64
2023/09/04 11:46:20;;;;;;;;;;;25.60;66.70;;;;;;4998346;28;19920;-66
2023/09/04 11:48:45;;;;;;;;;;;25.50;65.50;;;;;;5018199;28;19967;-65
2023/09/04 11:51:11;;;;;;;;;;;26.00;66.70;;;;;;5017725;28;20274;-67
2023/09/04 11:53:37;;;;;;;;;;;26.50;65.90;;;;;;5018578;28;19913;-66
2023/09/04 11:56:03;;;;;;;;;;;26.70;65.60;;;;;;5018606;28;20492;-67
2023/09/04 11:58:29;;;;;;;;;;;26.60;66.00;;;;;;5001322;28;19911;-67
2023/09/04 12:00:55;;;;;;;;;;;27.00;65.10;;;;;;5023933;28;20326;-66
2023/09/04 12:03:20;;;;;;;;;;;26.70;64.60;;;;;;4996459;28;19905;-67
2023/09/04 12:05:51;;;;;;;;;;;26.20;65.80;;;;;;4998569;28;20323;-67
2023/09/04 12:08:17;;;;;;;;;;;26.30;65.20;;;;;;5018015;28;19916;-67
2023/09/04 12:10:42;;;;;;;;;;;26.50;65.40;;;;;;5018546;28;19916;-67
2023/09/04 12:13:08;;;;;;;;;;;26.10;65.70;;;;;;5019035;28;19913;-67
2023/09/04 12:15:34;;;;;;;;;;;26.00;64.80;;;;;;5022285;28;19909;-66
2023/09/04 12:18:03;;;;;;;;;;;25.90;66.20;;;;;;4998940;28;19905;-65
2023/09/04 12:20:36;;;;;;;;;;;25.70;65.60;;;;;;5003101;28;19964;-63
2023/09/04 12:23:02;;;;;;;;;;;25.10;67.40;;;;;;5017454;28;19916;-63
2023/09/04 12:25:37;;;;;;;;;;;25.40;66.70;;;;;;5014065;28;20276;-63
2023/09/04 12:28:07;;;;;;;;;;;25.80;67.00;;;;;;5020825;28;19916;-63
2023/09/04 12:30:33;;;;;;;;;;;25.70;65.90;;;;;;5017024;28;20362;-64
2023/09/04 12:32:59;;;;;;;;;;;25.80;66.40;;;;;;5021146;28;20539;-75
2023/09/04 12:35:24;;;;;;;;;;;25.60;66.70;;;;;;5016692;28;19923;-68
2023/09/04 12:37:52;;;;;;;;;;;25.60;66.80;;;;;;5016919;28;19956;-62
2023/09/04 12:40:19;;;;;;;;;;;25.60;66.80;;;;;;5020800;28;19970;-64
2023/09/04 12:42:44;;;;;;;;;;;24.90;67.10;;;;;;5012135;28;20265;-64
2023/09/04 12:45:10;;;;;;;;;;;25.10;67.40;;;;;;4999128;28;19970;-63
2023/09/04 12:47:35;;;;;;;;;;;25.30;67.20;;;;;;5016978;28;20445;-64
2023/09/04 12:50:01;;;;;;;;;;;25.20;66.60;;;;;;5000136;28;20711;-64
2023/09/04 12:52:29;;;;;;;;;;;24.70;68.60;;;;;;4998349;28;19905;-64
2023/09/04 12:54:54;;;;;;;;;;;24.90;68.70;;;;;;5017495;28;19909;-64
2023/09/04 12:57:21;;;;;;;;;;;24.70;68.50;;;;;;5017377;28;20431;-64
2023/09/04 12:59:47;;;;;;;;;;;24.90;67.20;;;;;;5014398;28;19909;-64
2023/09/04 13:02:13;;;;;;;;;;;25.20;66.70;;;;;;5017294;28;19909;-64
2023/09/04 13:04:39;;;;;;;;;;;25.30;66.40;;;;;;5017923;28;19939;-64
2023/09/04 13:07:04;;;;;;;;;;;25.40;66.10;;;;;;5015109;28;19936;-64
2023/09/04 13:09:30;;;;;;;;;;;25.10;66.90;;;;;;5002009;28;19905;-63
2023/09/04 13:11:58;;;;;;;;;;;25.20;66.90;;;;;;4999643;28;19925;-64
2023/09/04 13:14:24;;;;;;;;;;;25.00;66.80;;;;;;5016636;28;19945;-64
2023/09/04 13:16:49;;;;;;;;;;;24.80;67.60;;;;;;5016207;28;19956;-63
2023/09/04 13:19:16;;;;;;;;;;;24.70;67.30;;;;;;4995470;28;19959;-64
2023/09/04 13:21:42;;;;;;;;;;;24.90;67.60;;;;;;5001240;28;19909;-64
2023/09/04 13:24:08;;;;;;;;;;;24.30;67.90;;;;;;5010463;28;19913;-64
2023/09/04 13:26:33;;;;;;;;;;;24.00;69.40;;;;;;5017117;28;20055;-64
2023/09/04 13:28:59;;;;;;;;;;;24.10;70.20;;;;;;5009384;28;19917;-64
2023/09/04 13:31:24;;;;;;;;;;;24.10;69.50;;;;;;5012400;28;19935;-64
2023/09/04 13:33:50;;;;;;;;;;;24.00;69.90;;;;;;5016713;28;19923;-64
2023/09/04 13:36:15;;;;;;;;;;;23.90;70.20;;;;;;5019880;28;20016;-64
2023/09/04 13:38:41;;;;;;;;;;;23.80;70.00;;;;;;5019007;28;19912;-64
2023/09/04 13:41:06;;;;;;;;;;;23.70;70.50;;;;;;5024531;28;20377;-64
2023/09/04 13:43:32;;;;;;;;;;;23.60;70.90;;;;;;5002061;28;19917;-64
2023/09/04 13:45:58;;;;;;;;;;;23.70;71.00;;;;;;5016919;28;19909;-64
2023/09/04 13:48:23;;;;;;;;;;;23.80;71.10;;;;;;5015122;28;19905;-64
2023/09/04 13:50:49;;;;;;;;;;;23.80;72.10;;;;;;5018832;28;19905;-64
2023/09/04 13:53:15;;;;;;;;;;;23.90;71.80;;;;;;5020425;28;20391;-64
2023/09/04 13:55:41;;;;;;;;;;;24.00;71.10;;;;;;5018274;28;20568;-64
2023/09/04 13:58:06;;;;;;;;;;;24.00;70.70;;;;;;5015030;28;19920;-64
2023/09/04 14:00:32;;;;;;;;;;;24.00;71.40;;;;;;5001330;28;19920;-64
2023/09/04 14:02:57;;;;;;;;;;;24.10;70.90;;;;;;5019233;28;19912;-64
2023/09/04 14:05:23;;;;;;;;;;;24.30;70.70;;;;;;5019584;28;20755;-64
2023/09/04 14:07:49;;;;;;;;;;;24.20;71.10;;;;;;5019449;28;19905;-64
2023/09/04 14:10:14;;;;;;;;;;;24.30;70.80;;;;;;5002714;28;19917;-64
2023/09/04 14:12:40;;;;;;;;;;;24.30;70.40;;;;;;5018322;28;20535;-64